Time;durP1;ratioP1;P1;durP2;ratioP2;P2;SDS_P1;SDS_P2;PMS_P1;PMS_P2;Temp;Humidity;BMP_temperature;BMP_pressure;BME280_temperature;BME280_humidity;BME280_pressure;Samples;Min_cycle;Max_cycle;Signal;HPM_P1;HPM_P2
2022/06/28 00:02:02;;;;;;;4.40;4.00;;;18.80;99.90;;;;;;5055779;28;20178;-79
2022/06/28 00:04:28;;;;;;;8.85;4.15;;;18.70;99.90;;;;;;5057795;28;20265;-79
2022/06/28 00:06:54;;;;;;;6.60;4.25;;;18.70;99.90;;;;;;5055318;28;20178;-79
2022/06/28 00:09:21;;;;;;;4.30;3.90;;;18.70;99.90;;;;;;5056612;28;20245;-79
2022/06/28 00:11:46;;;;;;;4.50;4.10;;;18.80;99.90;;;;;;5055515;28;20189;-79
2022/06/28 00:16:57;;;;;;;4.30;3.90;;;18.80;99.90;;;;;;5056902;28;20161;-79
2022/06/28 00:19:24;;;;;;;4.93;4.47;;;18.80;99.90;;;;;;5055030;28;20293;-79
2022/06/28 00:21:49;;;;;;;4.43;4.07;;;18.70;99.90;;;;;;5055721;28;20185;-79
2022/06/28 00:24:16;;;;;;;5.00;4.50;;;18.70;99.90;;;;;;5056733;28;20170;-79
2022/06/28 00:26:42;;;;;;;4.38;4.07;;;18.70;99.90;;;;;;5055187;28;20245;-79
2022/06/28 00:29:08;;;;;;;6.03;4.85;;;18.70;99.90;;;;;;5055124;28;20683;-79
2022/06/28 00:31:33;;;;;;;7.75;5.45;;;18.60;99.90;;;;;;5055563;28;20178;-79
2022/06/28 00:33:59;;;;;;;5.05;4.55;;;18.50;99.90;;;;;;5054698;28;20676;-79
2022/06/28 00:36:25;;;;;;;7.25;4.65;;;18.40;99.90;;;;;;5054909;28;20184;-79
2022/06/28 00:38:51;;;;;;;5.72;5.22;;;18.40;99.90;;;;;;5054560;28;20248;-79
2022/06/28 00:41:16;;;;;;;6.25;4.97;;;18.20;99.90;;;;;;5054747;28;20175;-79
2022/06/28 00:43:42;;;;;;;8.00;4.90;;;18.20;99.90;;;;;;5056500;28;20285;-79
2022/06/28 00:46:08;;;;;;;10.95;4.88;;;18.20;99.90;;;;;;5054990;28;20182;-79
2022/06/28 00:48:34;;;;;;;7.72;4.65;;;18.10;99.90;;;;;;5055834;28;20210;-79
2022/06/28 00:51:01;;;;;;;5.35;4.85;;;17.90;99.90;;;;;;5053908;28;20186;-79
2022/06/28 00:53:27;;;;;;;7.38;4.95;;;17.90;99.90;;;;;;5056029;28;20178;-79
2022/06/28 00:55:53;;;;;;;7.78;5.22;;;17.70;99.90;;;;;;5054701;28;20177;-79
2022/06/28 00:58:18;;;;;;;6.90;4.90;;;17.60;99.90;;;;;;5054060;28;20279;-79
2022/06/28 01:00:47;;;;;;;6.55;5.07;;;17.50;99.90;;;;;;5054047;28;20380;-79
2022/06/28 01:03:15;;;;;;;9.98;5.32;;;17.30;99.90;;;;;;5057103;28;20181;-79
2022/06/28 01:05:42;;;;;;;11.43;5.43;;;17.20;99.90;;;;;;5058794;28;20182;-79
2022/06/28 01:08:09;;;;;;;11.93;5.88;;;17.20;99.90;;;;;;5058178;28;20205;-79
2022/06/28 01:10:36;;;;;;;10.13;5.95;;;17.10;99.90;;;;;;5057196;28;20209;-79
2022/06/28 01:13:02;;;;;;;11.35;5.57;;;17.10;99.90;;;;;;5057804;28;20505;-79
2022/06/28 01:15:28;;;;;;;12.32;5.50;;;16.90;99.90;;;;;;5057356;28;20180;-79
2022/06/28 01:17:54;;;;;;;9.13;5.18;;;16.90;99.90;;;;;;5057244;28;20182;-79
2022/06/28 01:20:21;;;;;;;9.57;4.97;;;16.80;99.90;;;;;;5057378;28;20190;-79
2022/06/28 01:22:46;;;;;;;11.05;5.07;;;16.60;99.90;;;;;;5058521;28;20178;-79
2022/06/28 01:25:13;;;;;;;7.32;4.80;;;16.70;99.90;;;;;;5056987;28;20557;-79
2022/06/28 01:27:40;;;;;;;14.60;5.00;;;16.60;99.90;;;;;;5057142;28;20680;-79
2022/06/28 01:30:07;;;;;;;9.40;4.70;;;16.60;99.90;;;;;;5057004;28;20232;-79
2022/06/28 01:32:34;;;;;;;4.97;4.38;;;16.50;99.90;;;;;;5057519;28;20178;-79
2022/06/28 01:35:01;;;;;;;10.18;4.45;;;16.50;99.90;;;;;;5057214;28;20252;-79
2022/06/28 01:37:27;;;;;;;5.97;4.82;;;16.50;99.90;;;;;;5057470;28;20192;-79
2022/06/28 01:39:53;;;;;;;4.60;4.15;;;16.50;99.90;;;;;;5056095;28;20708;-78
2022/06/28 01:42:19;;;;;;;5.75;3.95;;;16.40;99.90;;;;;;5057925;28;20193;-78
2022/06/28 01:44:45;;;;;;;6.97;4.63;;;16.40;99.90;;;;;;5056848;28;20178;-78
2022/06/28 01:47:12;;;;;;;8.10;4.20;;;16.30;99.90;;;;;;5056269;28;20229;-78
2022/06/28 01:49:39;;;;;;;6.60;4.40;;;16.20;99.90;;;;;;5057781;28;20225;-78
2022/06/28 01:52:05;;;;;;;7.30;4.50;;;16.10;99.90;;;;;;5058249;28;20205;-78
2022/06/28 01:54:30;;;;;;;7.63;4.53;;;16.10;99.90;;;;;;5056972;28;20178;-78
2022/06/28 01:56:56;;;;;;;7.68;4.78;;;16.00;99.90;;;;;;5055816;28;20170;-78
2022/06/28 01:59:23;;;;;;;6.30;4.18;;;16.00;99.90;;;;;;5055673;28;20205;-78
2022/06/28 02:01:48;;;;;;;8.30;4.55;;;16.00;99.90;;;;;;5056200;28;20265;-78
2022/06/28 02:04:28;;;;;;;6.45;4.53;;;15.90;99.90;;;;;;5056139;28;20655;-78
2022/06/28 02:06:54;;;;;;;5.35;4.03;;;15.90;99.90;;;;;;5055599;28;20186;-78
2022/06/28 02:09:20;;;;;;;7.85;4.07;;;15.90;99.90;;;;;;5057092;28;20205;-78
2022/06/28 02:11:46;;;;;;;8.73;3.97;;;15.90;99.90;;;;;;5055841;28;20175;-78
2022/06/28 02:14:12;;;;;;;7.47;4.50;;;15.90;99.90;;;;;;5054288;28;20224;-78
2022/06/28 02:16:37;;;;;;;10.60;4.50;;;15.80;99.90;;;;;;5056246;28;20166;-78
2022/06/28 02:19:03;;;;;;;10.63;4.20;;;15.60;99.90;;;;;;5055043;28;20194;-78
2022/06/28 02:21:36;;;;;;;7.75;4.22;;;15.50;99.90;;;;;;5055048;28;20285;-78
2022/06/28 02:24:02;;;;;;;6.05;4.75;;;15.50;99.90;;;;;;5056520;28;20174;-78
2022/06/28 02:26:27;;;;;;;13.40;4.85;;;15.40;99.90;;;;;;5056350;28;20257;-78
2022/06/28 02:28:53;;;;;;;11.85;4.80;;;15.30;99.90;;;;;;5055405;28;20690;-78
2022/06/28 02:31:19;;;;;;;11.48;4.07;;;15.30;99.90;;;;;;5055867;28;20189;-78
2022/06/28 02:33:44;;;;;;;8.65;4.63;;;15.20;99.90;;;;;;5055663;28;20515;-78
2022/06/28 02:41:38;;;;;;;8.20;4.57;;;15.10;99.90;;;;;;5056280;28;20185;-78
2022/06/28 02:44:04;;;;;;;13.73;4.18;;;14.90;99.90;;;;;;5054694;28;20637;-78
2022/06/28 02:46:31;;;;;;;10.55;3.80;;;14.90;99.90;;;;;;5054334;28;20278;-78
2022/06/28 02:48:57;;;;;;;11.82;4.25;;;14.80;99.90;;;;;;5054817;28;20264;-78
2022/06/28 02:51:23;;;;;;;11.82;3.83;;;14.70;99.90;;;;;;5054438;28;20178;-78
2022/06/28 02:53:49;;;;;;;10.65;3.70;;;14.60;99.90;;;;;;5055693;28;20171;-78
2022/06/28 02:56:14;;;;;;;12.73;4.10;;;14.50;99.90;;;;;;5054454;28;20206;-78
2022/06/28 02:58:40;;;;;;;6.55;3.92;;;14.40;99.90;;;;;;5054149;28;20225;-78
2022/06/28 03:01:15;;;;;;;5.45;3.75;;;14.40;99.90;;;;;;5054404;28;20545;-78
2022/06/28 03:03:41;;;;;;;8.57;4.00;;;14.50;99.90;;;;;;5055412;28;20173;-78
2022/06/28 03:06:06;;;;;;;10.13;3.70;;;14.60;99.90;;;;;;5055351;28;20217;-78
2022/06/28 03:08:33;;;;;;;6.63;3.30;;;14.60;99.90;;;;;;5054034;28;20221;-78
2022/06/28 03:10:59;;;;;;;8.27;3.63;;;14.60;99.90;;;;;;5054299;28;20219;-78
2022/06/28 03:13:24;;;;;;;8.52;3.63;;;14.70;99.90;;;;;;5054902;28;20179;-78
2022/06/28 03:15:50;;;;;;;6.63;3.10;;;14.60;99.90;;;;;;5053899;28;20196;-78
2022/06/28 03:18:16;;;;;;;10.85;3.17;;;14.50;99.90;;;;;;5053916;28;20194;-78
2022/06/28 03:20:42;;;;;;;4.72;3.35;;;14.50;99.90;;;;;;5053581;28;20198;-78
2022/06/28 03:23:07;;;;;;;3.40;3.10;;;14.30;99.90;;;;;;5054833;28;20239;-78
2022/06/28 03:25:33;;;;;;;6.63;3.53;;;14.30;99.90;;;;;;5054823;28;20186;-78
2022/06/28 03:27:59;;;;;;;9.27;3.47;;;14.10;99.90;;;;;;5054697;28;20234;-78
2022/06/28 03:30:25;;;;;;;10.93;3.47;;;14.10;99.90;;;;;;5054447;28;20170;-78
2022/06/28 03:32:51;;;;;;;9.57;3.78;;;14.00;99.90;;;;;;5053493;28;20228;-78
2022/06/28 03:35:16;;;;;;;17.55;3.38;;;13.90;99.90;;;;;;5054258;28;20171;-78
2022/06/28 03:37:42;;;;;;;12.05;3.78;;;13.80;99.90;;;;;;5054267;28;20238;-78
2022/06/28 03:40:08;;;;;;;16.13;4.10;;;13.80;99.90;;;;;;5053031;28;20221;-78
2022/06/28 03:42:34;;;;;;;9.50;4.10;;;13.90;99.90;;;;;;5053417;28;20235;-78
2022/06/28 03:45:00;;;;;;;8.70;3.45;;;13.80;99.90;;;;;;5053689;28;20186;-78
2022/06/28 03:47:25;;;;;;;7.20;3.70;;;13.90;99.90;;;;;;5053948;28;20206;-78
2022/06/28 03:49:51;;;;;;;8.05;3.63;;;14.00;99.90;;;;;;5054413;28;20533;-78
2022/06/28 03:52:16;;;;;;;6.70;3.58;;;14.10;99.90;;;;;;5053279;28;20177;-78
2022/06/28 03:54:42;;;;;;;7.13;3.38;;;14.20;99.90;;;;;;5053693;28;20173;-78
2022/06/28 03:57:08;;;;;;;8.65;3.45;;;14.20;99.90;;;;;;5054565;28;20174;-78
2022/06/28 03:59:35;;;;;;;8.65;3.63;;;14.40;99.90;;;;;;5052729;28;20198;-78
2022/06/28 04:02:01;;;;;;;15.07;3.70;;;14.40;99.90;;;;;;5052254;28;20731;-78
2022/06/28 04:04:26;;;;;;;12.93;3.83;;;14.30;99.90;;;;;;5052193;28;20216;-78
2022/06/28 04:06:52;;;;;;;11.25;3.28;;;14.30;99.90;;;;;;5052409;28;20664;-78
2022/06/28 04:09:33;;;;;;;9.23;3.38;;;14.10;99.90;;;;;;5052643;28;20198;-79
2022/06/28 04:11:58;;;;;;;5.55;3.17;;;14.20;99.90;;;;;;5053373;28;20166;-78
2022/06/28 04:14:24;;;;;;;8.35;3.50;;;14.10;99.90;;;;;;5054441;28;20227;-78
2022/06/28 04:16:50;;;;;;;12.43;3.83;;;14.20;99.90;;;;;;5052370;28;20185;-78
2022/06/28 04:19:15;;;;;;;17.17;4.15;;;14.20;99.90;;;;;;5052396;28;20198;-78
2022/06/28 04:21:41;;;;;;;9.13;3.47;;;14.30;99.90;;;;;;5053340;28;20547;-78
2022/06/28 04:24:07;;;;;;;7.32;3.20;;;14.30;99.90;;;;;;5063278;28;20193;-80
2022/06/28 04:26:33;;;;;;;8.60;3.38;;;14.40;99.90;;;;;;5064298;28;20185;-80
2022/06/28 04:28:59;;;;;;;11.60;3.58;;;14.50;99.90;;;;;;5066127;28;20236;-79
2022/06/28 04:31:25;;;;;;;9.25;3.42;;;14.60;99.90;;;;;;5062941;28;20174;-80
2022/06/28 04:33:51;;;;;;;6.90;3.20;;;14.70;99.90;;;;;;5053014;28;20513;-78
2022/06/28 04:36:16;;;;;;;5.95;3.10;;;14.80;99.90;;;;;;5052710;28;20186;-77
2022/06/28 04:38:42;;;;;;;8.57;3.17;;;15.00;99.90;;;;;;5054264;28;20217;-78
2022/06/28 04:41:08;;;;;;;5.95;3.20;;;15.00;99.90;;;;;;5056197;28;20205;-78
2022/06/28 04:43:34;;;;;;;5.90;2.70;;;15.10;99.90;;;;;;5056469;28;20620;-85
2022/06/28 04:45:59;;;;;;;8.40;3.90;;;15.20;99.90;;;;;;5057365;28;20240;-77
2022/06/28 04:52:16;;;;;;;4.55;3.30;;;15.50;99.90;;;;;;5056982;28;20208;-78
2022/06/28 04:54:42;;;;;;;10.05;3.25;;;15.60;99.90;;;;;;5056125;28;20171;-78
2022/06/28 04:57:07;;;;;;;8.98;3.22;;;15.70;99.90;;;;;;5056287;28;20182;-78
2022/06/28 04:59:33;;;;;;;13.20;3.72;;;15.80;99.90;;;;;;5056089;28;20201;-78
2022/06/28 05:01:58;;;;;;;5.45;3.20;;;15.90;99.90;;;;;;5055787;28;20182;-78
2022/06/28 05:04:24;;;;;;;11.48;3.25;;;16.00;99.90;;;;;;5057264;28;20174;-78
2022/06/28 05:06:49;;;;;;;8.00;3.17;;;16.10;99.90;;;;;;5055668;28;20606;-78
2022/06/28 05:09:15;;;;;;;5.13;3.00;;;16.30;99.90;;;;;;5055527;28;20370;-78
2022/06/28 05:11:40;;;;;;;7.05;3.17;;;16.40;99.90;;;;;;5056805;28;20194;-78
2022/06/28 05:14:42;;;;;;;8.30;2.83;;;16.40;99.90;;;;;;5055787;28;20175;-78
2022/06/28 05:17:08;;;;;;;6.35;3.00;;;16.50;99.90;;;;;;5056643;28;20178;-78
2022/06/28 05:19:33;;;;;;;4.10;2.72;;;16.60;99.90;;;;;;5056759;28;20224;-78
2022/06/28 05:21:59;;;;;;;3.67;2.70;;;16.60;99.90;;;;;;5056870;28;20262;-78
2022/06/28 05:24:25;;;;;;;4.57;2.75;;;16.70;99.90;;;;;;5055330;28;20185;-78
2022/06/28 05:26:50;;;;;;;6.93;3.05;;;16.70;99.90;;;;;;5055259;28;20216;-78
2022/06/28 05:29:17;;;;;;;5.40;2.70;;;16.70;99.90;;;;;;5055617;28;20210;-78
2022/06/28 05:31:42;;;;;;;4.28;2.50;;;16.70;99.90;;;;;;5056616;28;20179;-78
2022/06/28 05:34:08;;;;;;;7.57;3.00;;;16.90;99.90;;;;;;5063373;28;20659;-78
2022/06/28 05:36:34;;;;;;;9.90;2.92;;;17.00;99.90;;;;;;5075584;28;20241;-78
2022/06/28 05:39:00;;;;;;;7.43;3.00;;;17.10;99.90;;;;;;5076011;28;20235;-79
2022/06/28 05:41:25;;;;;;;8.88;3.53;;;17.20;99.90;;;;;;5076010;28;20247;-79
2022/06/28 05:43:51;;;;;;;4.32;3.15;;;17.30;99.90;;;;;;5076591;28;20188;-79
2022/06/28 05:46:17;;;;;;;9.90;3.13;;;17.40;99.90;;;;;;5078980;28;20177;-79
2022/06/28 05:48:42;;;;;;;9.13;2.60;;;17.50;99.90;;;;;;5076574;28;20667;-78
2022/06/28 05:51:08;;;;;;;2.35;2.15;;;17.60;99.90;;;;;;5075853;28;20176;-79
2022/06/28 05:53:33;;;;;;;1.73;1.63;;;17.70;99.90;;;;;;5075980;28;20178;-79
2022/06/28 05:55:59;;;;;;;3.38;1.83;;;17.80;99.90;;;;;;5076908;28;20250;-79
2022/06/28 05:58:48;;;;;;;3.50;2.08;;;18.00;99.90;;;;;;5075764;28;20198;-79
2022/06/28 06:01:14;;;;;;;2.67;1.90;;;18.10;99.90;;;;;;5074476;28;20184;-78
2022/06/28 06:04:14;;;;;;;4.57;2.08;;;18.00;99.90;;;;;;5075224;28;20177;-78
2022/06/28 06:06:45;;;;;;;2.47;2.22;;;18.10;99.90;;;;;;5075784;28;20158;-78
2022/06/28 06:09:10;;;;;;;4.47;1.90;;;18.20;99.90;;;;;;5074534;28;20220;-78
2022/06/28 06:11:36;;;;;;;4.68;2.00;;;18.30;99.90;;;;;;5074165;28;20629;-78
2022/06/28 06:14:02;;;;;;;2.40;2.20;;;18.40;99.90;;;;;;5074203;28;20177;-78
2022/06/28 06:17:17;;;;;;;1.90;1.73;;;18.70;99.90;;;;;;5074644;28;20256;-79
2022/06/28 06:19:44;;;;;;;2.80;1.92;;;19.10;99.90;;;;;;5074988;28;20201;-79
2022/06/28 06:22:09;;;;;;;1.90;1.67;;;19.90;99.90;;;;;;5076835;28;20252;-79
2022/06/28 06:24:35;;;;;;;5.60;1.95;;;20.70;99.90;;;;;;5077899;28;20201;-79
2022/06/28 06:27:01;;;;;;;7.15;1.75;;;21.60;98.90;;;;;;5077171;28;20217;-79
2022/06/28 06:29:26;;;;;;;1.50;1.30;;;22.40;94.50;;;;;;5078789;28;20194;-79
2022/06/28 06:31:52;;;;;;;4.28;1.30;;;23.00;90.50;;;;;;5079489;28;20655;-79
2022/06/28 06:34:18;;;;;;;3.95;1.30;;;23.50;85.90;;;;;;5080162;28;20173;-79
2022/06/28 06:36:45;;;;;;;2.90;1.10;;;23.80;84.30;;;;;;5081720;28;20173;-81
2022/06/28 06:39:10;;;;;;;1.40;1.00;;;24.50;78.80;;;;;;5078972;28;20209;-81
2022/06/28 06:41:36;;;;;;;0.90;0.90;;;25.10;71.30;;;;;;5076162;28;20183;-80
2022/06/28 06:44:02;;;;;;;2.55;1.20;;;25.40;65.50;;;;;;5076846;28;20273;-80
2022/06/28 06:46:28;;;;;;;2.45;0.98;;;25.40;63.30;;;;;;5076127;28;20181;-80
2022/06/28 06:48:53;;;;;;;2.58;1.02;;;25.80;61.10;;;;;;5076678;28;20209;-80
2022/06/28 06:51:21;;;;;;;0.90;0.90;;;25.80;60.50;;;;;;5075949;28;20181;-80
2022/06/28 06:53:47;;;;;;;1.30;0.85;;;25.80;59.90;;;;;;5074774;28;20197;-80
2022/06/28 06:56:12;;;;;;;1.08;1.08;;;25.70;59.50;;;;;;5074784;28;20188;-80
2022/06/28 06:58:38;;;;;;;5.07;1.00;;;25.40;58.40;;;;;;5075376;28;20254;-80
2022/06/28 07:01:04;;;;;;;2.45;0.90;;;24.30;61.20;;;;;;5075549;28;20173;-79
2022/06/28 07:03:35;;;;;;;2.75;1.10;;;23.60;62.70;;;;;;5075169;28;20181;-79
2022/06/28 07:06:01;;;;;;;1.08;0.95;;;22.90;65.90;;;;;;5075243;28;20250;-80
2022/06/28 07:08:26;;;;;;;1.50;1.02;;;22.60;66.50;;;;;;5074383;28;20209;-80
2022/06/28 07:10:52;;;;;;;1.25;0.93;;;22.30;66.60;;;;;;5074237;28;20177;-79
2022/06/28 07:13:17;;;;;;;2.83;1.10;;;22.00;67.60;;;;;;5073236;28;20217;-79
2022/06/28 07:15:43;;;;;;;1.15;1.08;;;21.80;69.30;;;;;;5073072;28;20226;-78
2022/06/28 07:18:09;;;;;;;1.23;1.00;;;21.70;70.00;;;;;;5073674;28;20173;-78
2022/06/28 07:20:34;;;;;;;0.77;0.77;;;21.60;69.50;;;;;;5073131;28;20185;-78
2022/06/28 07:23:00;;;;;;;2.17;1.23;;;21.50;68.30;;;;;;5075135;28;20187;-78
2022/06/28 07:25:26;;;;;;;2.33;1.15;;;21.50;68.40;;;;;;5059364;28;20241;-78
2022/06/28 07:27:53;;;;;;;0.80;0.80;;;21.50;67.30;;;;;;5053631;28;20296;-79
2022/06/28 07:30:20;;;;;;;0.88;0.88;;;21.30;68.70;;;;;;5052677;28;20249;-78
2022/06/28 07:32:46;;;;;;;1.35;1.00;;;21.50;69.60;;;;;;5052702;28;20174;-78
2022/06/28 07:35:30;;;;;;;2.30;1.10;;;21.60;67.90;;;;;;5065656;28;20173;-78
2022/06/28 07:37:55;;;;;;;2.83;1.17;;;21.70;66.40;;;;;;5073215;28;20177;-79
2022/06/28 07:40:22;;;;;;;2.08;1.15;;;21.60;66.40;;;;;;5073190;28;20244;-78
2022/06/28 07:42:48;;;;;;;1.92;1.20;;;21.80;66.50;;;;;;5072636;28;20205;-78
2022/06/28 07:45:14;;;;;;;0.93;0.90;;;21.70;66.00;;;;;;5072589;28;20652;-78
2022/06/28 07:47:40;;;;;;;4.18;0.90;;;21.80;67.30;;;;;;5073016;28;20252;-79
2022/06/28 07:52:50;;;;;;;2.00;1.25;;;21.80;64.30;;;;;;5074401;28;20246;-80
2022/06/28 07:55:16;;;;;;;1.30;1.20;;;21.80;65.00;;;;;;5073283;28;20201;-79
2022/06/28 07:57:42;;;;;;;1.08;0.98;;;21.90;66.10;;;;;;5074137;28;20226;-79
2022/06/28 08:00:08;;;;;;;0.88;0.82;;;22.10;64.90;;;;;;5072948;28;20207;-79
2022/06/28 08:02:34;;;;;;;1.40;1.10;;;22.00;64.10;;;;;;5072672;28;20185;-79
2022/06/28 08:05:37;;;;;;;3.10;1.00;;;22.00;64.10;;;;;;5073338;28;20185;-79
2022/06/28 08:08:03;;;;;;;1.55;1.00;;;21.90;64.80;;;;;;5073464;28;20193;-79
2022/06/28 08:10:29;;;;;;;2.10;1.10;;;22.00;62.20;;;;;;5072976;28;20181;-79
2022/06/28 08:12:54;;;;;;;1.10;1.00;;;22.10;62.80;;;;;;5074104;28;20235;-79
2022/06/28 08:15:20;;;;;;;1.95;0.98;;;22.40;61.40;;;;;;5072821;28;20227;-79
2022/06/28 08:17:46;;;;;;;4.68;1.42;;;22.50;61.80;;;;;;5072412;28;20169;-79
2022/06/28 08:20:11;;;;;;;2.28;1.35;;;22.50;61.00;;;;;;5073108;28;20280;-79
2022/06/28 08:22:37;;;;;;;2.97;1.20;;;22.30;60.90;;;;;;5072584;28;20671;-79
2022/06/28 08:25:03;;;;;;;1.38;1.02;;;22.50;60.20;;;;;;5073131;28;20181;-79
2022/06/28 08:27:29;;;;;;;4.80;0.90;;;22.40;60.60;;;;;;5072191;28;20198;-80
2022/06/28 08:29:54;;;;;;;1.20;1.10;;;22.40;59.90;;;;;;5072391;28;20189;-80
2022/06/28 08:32:23;;;;;;;1.42;1.33;;;22.50;62.10;;;;;;5072445;28;20311;-80
2022/06/28 08:34:49;;;;;;;1.20;1.10;;;22.50;61.20;;;;;;5073068;28;20180;-80
2022/06/28 08:37:39;;;;;;;2.80;1.10;;;22.60;61.60;;;;;;5072569;28;20177;-80
2022/06/28 08:40:05;;;;;;;0.85;0.85;;;22.80;57.60;;;;;;5072292;28;20213;-80
2022/06/28 08:42:35;;;;;;;2.75;1.38;;;22.80;57.60;;;;;;5073310;28;20169;-80
2022/06/28 08:45:01;;;;;;;1.98;1.10;;;22.70;54.70;;;;;;5072456;28;20200;-80
2022/06/28 08:47:33;;;;;;;1.17;1.08;;;22.60;56.60;;;;;;5072389;28;20216;-80
2022/06/28 08:50:15;;;;;;;1.95;1.02;;;22.60;56.70;;;;;;5072409;28;20674;-79
2022/06/28 08:52:42;;;;;;;3.20;1.20;;;22.80;55.00;;;;;;5072429;28;20260;-79
2022/06/28 08:55:09;;;;;;;1.35;1.05;;;22.90;55.10;;;;;;5072395;28;20203;-79
2022/06/28 08:57:35;;;;;;;1.60;0.80;;;23.00;54.80;;;;;;5073402;28;20536;-80
2022/06/28 09:00:05;;;;;;;1.10;0.82;;;23.20;53.90;;;;;;5072060;28;20201;-80
2022/06/28 09:02:31;;;;;;;1.33;0.93;;;23.10;52.90;;;;;;5072392;28;20209;-80
2022/06/28 09:04:59;;;;;;;2.30;1.02;;;23.30;53.50;;;;;;5072234;28;20230;-80
2022/06/28 09:07:24;;;;;;;2.83;0.88;;;23.40;53.30;;;;;;5072153;28;20201;-79
2022/06/28 09:09:51;;;;;;;2.42;1.10;;;23.70;54.00;;;;;;5071960;28;20267;-80
2022/06/28 09:12:17;;;;;;;3.83;1.35;;;23.90;52.70;;;;;;5072816;28;20269;-80
2022/06/28 09:14:43;;;;;;;0.90;0.90;;;23.90;51.80;;;;;;5071928;28;20170;-79
2022/06/28 09:17:27;;;;;;;1.42;0.90;;;24.00;50.70;;;;;;5072181;28;20184;-79
2022/06/28 09:20:11;;;;;;;2.90;1.00;;;24.00;50.60;;;;;;5071815;28;20244;-79
2022/06/28 09:22:42;;;;;;;1.30;0.95;;;23.80;49.30;;;;;;5071921;28;20170;-79
2022/06/28 09:25:33;;;;;;;1.02;0.90;;;23.90;50.40;;;;;;5074495;28;20216;-80
2022/06/28 09:28:11;;;;;;;0.90;0.90;;;24.00;50.30;;;;;;5075187;28;20259;-80
2022/06/28 09:30:37;;;;;;;1.23;1.10;;;23.80;48.60;;;;;;5075141;28;20248;-80
2022/06/28 09:33:03;;;;;;;1.00;0.90;;;23.90;51.50;;;;;;5075127;28;20221;-79
2022/06/28 09:35:29;;;;;;;3.70;1.00;;;24.00;50.00;;;;;;5075300;28;20184;-79
2022/06/28 09:37:54;;;;;;;1.83;1.13;;;24.00;50.10;;;;;;5076628;28;20605;-79
2022/06/28 09:40:22;;;;;;;8.32;1.60;;;24.00;48.20;;;;;;5075551;28;20200;-79
2022/06/28 09:43:06;;;;;;;1.75;0.88;;;24.00;50.00;;;;;;5075065;28;20186;-79
2022/06/28 09:45:36;;;;;;;2.72;1.13;;;24.00;48.00;;;;;;5074857;28;20174;-79
2022/06/28 09:48:03;;;;;;;2.33;1.17;;;24.10;48.50;;;;;;5075252;28;20212;-79
2022/06/28 09:50:31;;;;;;;6.32;1.27;;;24.30;47.80;;;;;;5074989;28;20173;-79
2022/06/28 09:52:59;;;;;;;1.13;0.95;;;24.30;50.00;;;;;;5074840;28;20640;-79
2022/06/28 09:55:28;;;;;;;1.50;0.90;;;24.40;49.30;;;;;;5074815;28;20177;-79
2022/06/28 09:57:54;;;;;;;4.68;1.20;;;24.40;48.40;;;;;;5074325;28;20636;-79
2022/06/28 10:00:21;;;;;;;2.38;1.20;;;24.40;47.40;;;;;;5074583;28;20587;-78
2022/06/28 10:02:47;;;;;;;3.00;1.13;;;24.30;46.60;;;;;;5075527;28;20612;-78
2022/06/28 10:05:13;;;;;;;5.00;1.05;;;24.30;47.20;;;;;;5074275;28;20180;-78
2022/06/28 10:07:40;;;;;;;2.42;1.10;;;24.20;46.00;;;;;;5074547;28;20250;-78
2022/06/28 10:10:09;;;;;;;2.65;1.25;;;24.00;47.80;;;;;;5074446;28;20284;-78
2022/06/28 10:15:23;;;;;;;0.90;0.90;;;24.30;46.20;;;;;;5075463;28;20212;-78
2022/06/28 10:18:08;;;;;;;3.65;0.95;;;24.30;46.00;;;;;;5075725;28;20678;-79
2022/06/28 10:20:39;;;;;;;1.25;0.90;;;24.30;45.60;;;;;;5074855;28;20184;-79
2022/06/28 10:23:37;;;;;;;2.58;1.10;;;24.30;46.40;;;;;;5075995;28;20602;-78
2022/06/28 10:26:05;;;;;;;1.98;1.00;;;24.40;47.30;;;;;;5075397;28;20182;-79
2022/06/28 10:28:41;;;;;;;1.30;1.10;;;24.40;47.40;;;;;;5074530;28;20210;-79
2022/06/28 10:31:25;;;;;;;0.88;0.88;;;24.50;45.70;;;;;;5075990;28;20287;-79
2022/06/28 10:33:57;;;;;;;6.50;1.63;;;24.60;44.60;;;;;;5073472;28;20177;-80
2022/06/28 10:36:31;;;;;;;1.88;1.10;;;24.60;44.10;;;;;;5062863;28;20183;-79
2022/06/28 10:39:08;;;;;;;3.30;1.02;;;24.60;44.10;;;;;;5054231;28;20241;-79
2022/06/28 10:41:41;;;;;;;2.15;1.05;;;24.70;45.00;;;;;;5053518;28;20185;-79
2022/06/28 10:44:41;;;;;;;5.15;1.42;;;24.70;43.60;;;;;;5053429;28;20559;-78
2022/06/28 10:47:07;;;;;;;1.35;0.98;;;24.80;43.40;;;;;;5053803;28;20257;-79
2022/06/28 10:49:43;;;;;;;1.00;0.90;;;24.80;42.00;;;;;;5065706;28;20326;-79
2022/06/28 10:52:17;;;;;;;1.33;0.90;;;24.60;42.60;;;;;;5057528;28;20182;-79
2022/06/28 10:54:51;;;;;;;1.52;1.17;;;24.60;42.90;;;;;;5054446;28;20170;-79
2022/06/28 10:57:38;;;;;;;1.58;1.08;;;24.60;44.20;;;;;;5053778;28;20181;-79
2022/06/28 11:00:26;;;;;;;2.03;1.05;;;24.80;43.70;;;;;;5054357;28;20204;-79
2022/06/28 11:02:52;;;;;;;0.95;0.88;;;24.90;43.10;;;;;;5054920;28;20151;-79
2022/06/28 11:05:23;;;;;;;2.25;0.98;;;24.80;40.90;;;;;;5055554;28;20633;-79
2022/06/28 11:08:02;;;;;;;1.45;1.17;;;24.80;40.80;;;;;;5073355;28;20201;-79
2022/06/28 11:10:29;;;;;;;2.20;1.10;;;24.40;41.70;;;;;;5070253;28;20195;-79
2022/06/28 11:13:18;;;;;;;2.95;1.40;;;24.40;41.80;;;;;;5053305;28;20185;-79
2022/06/28 11:15:44;;;;;;;0.90;0.90;;;24.50;43.30;;;;;;5053313;28;20182;-79
2022/06/28 11:18:20;;;;;;;2.92;2.72;;;24.70;43.90;;;;;;5054818;28;20181;-79
2022/06/28 11:20:46;;;;;;;3.10;2.00;;;24.90;43.60;;;;;;5054381;28;20252;-79
2022/06/28 11:23:30;;;;;;;4.10;2.58;;;25.00;43.60;;;;;;5053313;28;20190;-79
2022/06/28 11:28:57;;;;;;;1.67;1.20;;;25.10;42.60;;;;;;5054645;28;20221;-79
2022/06/28 11:31:25;;;;;;;3.40;1.83;;;25.10;43.70;;;;;;5054126;28;20174;-79
2022/06/28 11:33:51;;;;;;;1.98;1.48;;;25.30;43.20;;;;;;5054171;28;20173;-79
2022/06/28 11:36:23;;;;;;;2.83;1.00;;;25.30;42.20;;;;;;5054704;28;20178;-79
2022/06/28 11:38:49;;;;;;;1.63;1.25;;;25.30;41.10;;;;;;5052858;28;20260;-79
2022/06/28 11:41:29;;;;;;;1.63;1.00;;;25.00;42.30;;;;;;5052934;28;20252;-79
2022/06/28 11:43:59;;;;;;;4.25;1.25;;;25.00;41.40;;;;;;5052862;28;20174;-79
2022/06/28 11:46:27;;;;;;;2.03;1.30;;;25.00;42.70;;;;;;5053508;28;20253;-79
2022/06/28 11:48:53;;;;;;;2.67;1.48;;;25.10;42.50;;;;;;5054149;28;20209;-79
2022/06/28 11:51:31;;;;;;;1.27;1.15;;;25.30;43.20;;;;;;5053881;28;20691;-79
2022/06/28 11:53:57;;;;;;;3.65;1.15;;;25.30;41.70;;;;;;5055184;28;20166;-79
2022/06/28 11:56:22;;;;;;;2.10;1.13;;;25.30;41.10;;;;;;5052649;28;20184;-79
2022/06/28 11:58:49;;;;;;;3.42;1.40;;;25.00;41.70;;;;;;5052413;28;20201;-79
2022/06/28 12:01:21;;;;;;;5.00;1.23;;;24.70;42.70;;;;;;5052427;28;20166;-79
2022/06/28 12:03:46;;;;;;;1.67;1.17;;;24.90;43.30;;;;;;5052800;28;20176;-79
2022/06/28 12:06:26;;;;;;;5.75;1.10;;;25.10;42.70;;;;;;5054243;28;20189;-79
2022/06/28 12:09:00;;;;;;;4.05;1.35;;;25.30;42.30;;;;;;5051187;28;20210;-79
2022/06/28 12:11:36;;;;;;;4.57;1.20;;;25.30;42.20;;;;;;5051666;28;20189;-79
2022/06/28 12:14:12;;;;;;;2.88;1.10;;;25.40;41.70;;;;;;5051825;28;20182;-79
2022/06/28 12:16:43;;;;;;;2.33;1.02;;;25.30;40.90;;;;;;5052622;28;20586;-79
2022/06/28 12:19:13;;;;;;;2.25;1.00;;;25.40;42.60;;;;;;5052676;28;20197;-79
2022/06/28 12:21:58;;;;;;;1.13;0.95;;;25.10;40.70;;;;;;5054326;28;20257;-79
2022/06/28 12:24:56;;;;;;;1.90;1.20;;;24.80;41.10;;;;;;5054671;28;20168;-79
2022/06/28 12:27:27;;;;;;;1.92;1.20;;;24.90;42.50;;;;;;5030865;28;20229;-79
2022/06/28 12:29:54;;;;;;;2.17;0.90;;;25.10;42.20;;;;;;5054015;28;20194;-80
2022/06/28 12:32:21;;;;;;;2.42;1.20;;;25.30;42.30;;;;;;5065209;28;20165;-79
2022/06/28 12:34:47;;;;;;;2.67;1.00;;;25.40;41.20;;;;;;5072454;28;20174;-79
2022/06/28 12:37:13;;;;;;;1.35;1.20;;;25.50;40.80;;;;;;5073782;28;20173;-79
2022/06/28 12:39:40;;;;;;;1.67;1.02;;;25.50;41.00;;;;;;5072854;28;20205;-79
2022/06/28 12:42:13;;;;;;;2.55;0.90;;;25.70;40.50;;;;;;5072417;28;20225;-79
2022/06/28 12:44:38;;;;;;;1.10;1.00;;;25.30;39.30;;;;;;5072568;28;20165;-79
2022/06/28 12:47:04;;;;;;;2.58;1.17;;;25.40;41.40;;;;;;5072700;28;20169;-79
2022/06/28 12:49:30;;;;;;;1.25;1.15;;;25.40;40.10;;;;;;5072301;28;20270;-79
2022/06/28 12:51:55;;;;;;;1.58;1.00;;;25.30;39.90;;;;;;5073107;28;20541;-79
2022/06/28 12:54:23;;;;;;;2.83;1.20;;;25.50;39.00;;;;;;5072852;28;20173;-80
2022/06/28 12:56:49;;;;;;;0.93;0.93;;;25.60;38.80;;;;;;5072527;28;20292;-79
2022/06/28 12:59:14;;;;;;;2.83;1.05;;;25.50;37.40;;;;;;5073570;28;20243;-80
2022/06/28 13:01:40;;;;;;;3.75;1.17;;;25.60;39.30;;;;;;5076184;28;20174;-79
2022/06/28 13:04:06;;;;;;;1.50;0.95;;;25.40;37.50;;;;;;5076505;28;20209;-79
2022/06/28 13:06:33;;;;;;;1.65;0.98;;;25.20;37.80;;;;;;5076123;28;20182;-79
2022/06/28 13:08:59;;;;;;;0.93;0.93;;;25.20;38.40;;;;;;5075818;28;20213;-79
2022/06/28 13:11:24;;;;;;;0.95;0.88;;;25.40;38.30;;;;;;5075979;28;20200;-80
2022/06/28 13:14:19;;;;;;;6.32;1.05;;;25.40;39.20;;;;;;5075956;28;20671;-79